Time;durP1;ratioP1;P1;durP2;ratioP2;P2;SDS_P1;SDS_P2;PMS_P1;PMS_P2;Temp;Humidity;BMP_temperature;BMP_pressure;BME280_temperature;BME280_humidity;BME280_pressure;Samples;Min_cycle;Max_cycle;Signal;HPM_P1;HPM_P2
2021/04/13 00:01:12;;;;;;;4.57;3.63;;;;;;;;;;5087399;28;20199;-73
2021/04/13 00:03:53;;;;;;;4.50;3.80;;;;;;;;;;5091798;28;20237;-73
2021/04/13 00:06:25;;;;;;;5.10;4.45;;;;;;;;;;5072088;28;20556;-73
2021/04/13 00:08:55;;;;;;;5.45;4.15;;;;;;;;;;5086939;28;20183;-73
2021/04/13 00:11:21;;;;;;;5.70;4.03;;;;;;;;;;5092312;28;20186;-73
2021/04/13 00:13:50;;;;;;;4.68;4.20;;;;;;;;;;5100046;28;20198;-74
2021/04/13 00:16:18;;;;;;;5.32;3.97;;;;;;;;;;5090694;28;20199;-73
2021/04/13 00:18:45;;;;;;;5.72;4.38;;;;;;;;;;5092194;28;20238;-72
2021/04/13 00:21:32;;;;;;;4.57;3.40;;;;;;;;;;5092275;28;20184;-73
2021/04/13 00:24:00;;;;;;;4.72;4.30;;;;;;;;;;5090172;28;20195;-73
2021/04/13 00:26:29;;;;;;;5.45;4.13;;;;;;;;;;5091820;28;20195;-73
2021/04/13 00:28:56;;;;;;;8.00;5.00;;;;;;;;;;5093880;28;20226;-72
2021/04/13 00:31:45;;;;;;;7.30;4.90;;;;;;;;;;5091872;28;20249;-73
2021/04/13 00:34:22;;;;;;;6.32;4.53;;;;;;;;;;5091590;28;20253;-73
2021/04/13 00:36:49;;;;;;;6.55;4.57;;;;;;;;;;5088941;28;20667;-73
2021/04/13 00:39:28;;;;;;;6.65;4.60;;;;;;;;;;5091731;28;20191;-72
2021/04/13 00:42:07;;;;;;;9.00;4.88;;;;;;;;;;5111259;28;20182;-74
2021/04/13 00:44:35;;;;;;;5.82;4.75;;;;;;;;;;5109008;28;20175;-73
2021/04/13 00:47:05;;;;;;;5.63;5.05;;;;;;;;;;5097828;28;20225;-73
2021/04/13 00:49:33;;;;;;;4.97;4.47;;;;;;;;;;5095603;28;20220;-73
2021/04/13 00:52:02;;;;;;;7.45;4.85;;;;;;;;;;5103885;28;20174;-74
2021/04/13 00:54:32;;;;;;;5.22;4.75;;;;;;;;;;5105353;28;20211;-74
2021/04/13 00:57:03;;;;;;;6.28;5.68;;;;;;;;;;5105129;28;20750;-73
2021/04/13 00:59:31;;;;;;;5.22;4.70;;;;;;;;;;5114402;28;20269;-73
2021/04/13 01:01:58;;;;;;;5.47;4.85;;;;;;;;;;5115400;28;20532;-73
2021/04/13 01:04:48;;;;;;;8.45;5.68;;;;;;;;;;5097906;28;20191;-74
2021/04/13 01:07:16;;;;;;;8.70;5.20;;;;;;;;;;5106106;28;20621;-72
2021/04/13 01:09:44;;;;;;;8.32;5.90;;;;;;;;;;5115631;28;20210;-72
2021/04/13 01:12:16;;;;;;;8.02;5.88;;;;;;;;;;5115364;28;20536;-73
2021/04/13 01:14:42;;;;;;;5.70;5.20;;;;;;;;;;5098504;28;20640;-73
2021/04/13 01:17:09;;;;;;;7.97;5.22;;;;;;;;;;5094609;28;20211;-73
2021/04/13 01:19:54;;;;;;;6.07;4.78;;;;;;;;;;5104338;28;20170;-73
2021/04/13 01:22:54;;;;;;;5.20;4.70;;;;;;;;;;5115000;28;20179;-73
2021/04/13 01:25:22;;;;;;;6.40;4.95;;;;;;;;;;5114867;28;20593;-73
2021/04/13 01:27:59;;;;;;;5.32;4.53;;;;;;;;;;5106769;28;20175;-73
2021/04/13 01:30:41;;;;;;;5.20;4.70;;;;;;;;;;5084488;28;20183;-73
2021/04/13 01:33:31;;;;;;;6.25;5.03;;;;;;;;;;5096286;28;20183;-73
2021/04/13 01:35:59;;;;;;;6.07;4.70;;;;;;;;;;5091264;28;20733;-73
2021/04/13 01:38:40;;;;;;;6.07;4.47;;;;;;;;;;5092647;28;20564;-73
2021/04/13 01:41:28;;;;;;;7.07;4.72;;;;;;;;;;5094202;28;20236;-73
2021/04/13 01:43:54;;;;;;;7.05;4.78;;;;;;;;;;5093688;28;20211;-74
2021/04/13 01:46:20;;;;;;;5.45;4.63;;;;;;;;;;5096661;28;20244;-73
2021/04/13 01:48:47;;;;;;;5.60;4.30;;;;;;;;;;5093837;28;20668;-73
2021/04/13 01:51:13;;;;;;;4.68;4.22;;;;;;;;;;5114035;28;20179;-73
2021/04/13 01:53:45;;;;;;;5.40;4.30;;;;;;;;;;5100923;27;20179;-73
2021/04/13 01:56:13;;;;;;;10.38;4.80;;;;;;;;;;5096855;28;20945;-73
2021/04/13 01:58:45;;;;;;;6.13;4.32;;;;;;;;;;5102065;28;20207;-73
2021/04/13 02:01:17;;;;;;;7.70;4.95;;;;;;;;;;5102027;28;20676;-73
2021/04/13 02:03:43;;;;;;;5.15;4.63;;;;;;;;;;5093750;28;20227;-73
2021/04/13 02:06:14;;;;;;;6.73;4.40;;;;;;;;;;5093615;28;20195;-73
2021/04/13 02:08:49;;;;;;;6.93;4.40;;;;;;;;;;5093696;28;20781;-72
2021/04/13 02:11:23;;;;;;;6.93;5.00;;;;;;;;;;5093471;28;20189;-73
2021/04/13 02:13:52;;;;;;;4.93;4.40;;;;;;;;;;5105011;28;20163;-72
2021/04/13 02:16:18;;;;;;;9.10;4.55;;;;;;;;;;5099623;28;20204;-72
2021/04/13 02:18:45;;;;;;;5.60;4.07;;;;;;;;;;5099276;28;20656;-72
2021/04/13 02:21:13;;;;;;;6.20;4.00;;;;;;;;;;5113951;28;20383;-72
2021/04/13 02:23:43;;;;;;;6.38;4.60;;;;;;;;;;5102920;28;20255;-74
2021/04/13 02:26:09;;;;;;;4.53;4.13;;;;;;;;;;5097682;28;20544;-74
2021/04/13 02:28:35;;;;;;;7.32;4.65;;;;;;;;;;5093423;28;20187;-74
2021/04/13 02:31:05;;;;;;;5.75;4.85;;;;;;;;;;5094791;28;20532;-73
2021/04/13 02:33:34;;;;;;;6.25;4.20;;;;;;;;;;5113239;28;20187;-74
2021/04/13 02:36:07;;;;;;;6.57;4.68;;;;;;;;;;5111357;28;20209;-73
2021/04/13 02:38:36;;;;;;;4.80;4.10;;;;;;;;;;5093991;28;20207;-74
2021/04/13 02:41:11;;;;;;;6.25;5.10;;;;;;;;;;5110821;28;20181;-73
2021/04/13 02:43:43;;;;;;;7.30;4.80;;;;;;;;;;5097166;28;20227;-73
2021/04/13 02:46:11;;;;;;;4.95;4.28;;;;;;;;;;5093098;28;20187;-73
2021/04/13 02:48:43;;;;;;;8.93;4.93;;;;;;;;;;5093155;28;20198;-74
2021/04/13 02:51:11;;;;;;;7.00;4.35;;;;;;;;;;5080122;28;20195;-74
2021/04/13 02:53:39;;;;;;;6.43;4.35;;;;;;;;;;5103163;28;20266;-72
2021/04/13 02:56:07;;;;;;;6.18;4.55;;;;;;;;;;5093123;28;20333;-73
2021/04/13 02:58:38;;;;;;;8.48;4.55;;;;;;;;;;5090422;28;20214;-73
2021/04/13 03:01:05;;;;;;;7.78;4.60;;;;;;;;;;5086155;28;20175;-74
2021/04/13 03:03:40;;;;;;;8.90;4.47;;;;;;;;;;5095946;28;20224;-75
2021/04/13 03:06:06;;;;;;;5.95;3.80;;;;;;;;;;5092830;28;20191;-73
2021/04/13 03:08:37;;;;;;;7.18;4.80;;;;;;;;;;5111187;28;20185;-72
2021/04/13 03:11:08;;;;;;;10.60;4.75;;;;;;;;;;5095058;28;20211;-73
2021/04/13 03:13:35;;;;;;;5.35;3.92;;;;;;;;;;5092272;28;20258;-73
2021/04/13 03:16:02;;;;;;;6.50;4.20;;;;;;;;;;5096427;28;20555;-73
2021/04/13 03:18:49;;;;;;;6.60;3.75;;;;;;;;;;5096807;28;20203;-72
2021/04/13 03:21:23;;;;;;;5.90;3.70;;;;;;;;;;5107701;28;20219;-73
2021/04/13 03:23:51;;;;;;;7.30;4.20;;;;;;;;;;5106850;28;20258;-72
2021/04/13 03:26:19;;;;;;;5.75;3.58;;;;;;;;;;5100519;28;20251;-73
2021/04/13 03:28:48;;;;;;;7.05;5.00;;;;;;;;;;5100534;28;20182;-73
2021/04/13 03:31:14;;;;;;;10.10;4.43;;;;;;;;;;5096714;28;20198;-72
2021/04/13 03:33:41;;;;;;;7.78;4.43;;;;;;;;;;5108400;28;20183;-73
2021/04/13 03:36:16;;;;;;;7.85;4.28;;;;;;;;;;5111564;28;20201;-73
2021/04/13 03:38:43;;;;;;;6.75;4.00;;;;;;;;;;5096167;28;20202;-72
2021/04/13 03:41:16;;;;;;;14.52;4.82;;;;;;;;;;5101840;28;20223;-73
2021/04/13 03:43:42;;;;;;;5.90;4.03;;;;;;;;;;5090490;28;20187;-73
2021/04/13 03:46:09;;;;;;;7.38;4.60;;;;;;;;;;5104368;28;20213;-73
2021/04/13 03:48:36;;;;;;;6.15;4.55;;;;;;;;;;5116750;28;20251;-74
2021/04/13 03:51:04;;;;;;;9.52;4.30;;;;;;;;;;5111163;28;20183;-73
2021/04/13 03:53:32;;;;;;;11.18;4.20;;;;;;;;;;5116487;28;20213;-74
2021/04/13 03:56:05;;;;;;;7.82;4.88;;;;;;;;;;5101459;28;20240;-74
2021/04/13 03:58:33;;;;;;;6.20;4.15;;;;;;;;;;5099253;28;20554;-73
2021/04/13 04:00:59;;;;;;;7.88;4.25;;;;;;;;;;5108191;28;20259;-73
2021/04/13 04:03:25;;;;;;;5.28;4.78;;;;;;;;;;5105813;28;20172;-73
2021/04/13 04:05:55;;;;;;;10.63;4.40;;;;;;;;;;5096168;28;20675;-73
2021/04/13 04:08:35;;;;;;;8.55;4.55;;;;;;;;;;5096092;28;20536;-73
2021/04/13 04:11:01;;;;;;;7.32;4.50;;;;;;;;;;5096171;28;20175;-74
2021/04/13 04:13:28;;;;;;;6.75;4.05;;;;;;;;;;5109181;28;20164;-74
2021/04/13 04:16:12;;;;;;;4.53;3.83;;;;;;;;;;5095689;28;20199;-74
2021/04/13 04:18:38;;;;;;;6.80;4.65;;;;;;;;;;5089805;28;20568;-74
2021/04/13 04:21:16;;;;;;;6.00;4.70;;;;;;;;;;5094219;28;20275;-73
2021/04/13 04:23:42;;;;;;;5.93;4.32;;;;;;;;;;5106411;28;20381;-72
2021/04/13 04:26:08;;;;;;;6.65;4.50;;;;;;;;;;5095370;28;20214;-74
2021/04/13 04:28:36;;;;;;;11.25;4.60;;;;;;;;;;5095460;28;20184;-72
2021/04/13 04:31:34;;;;;;;6.43;4.60;;;;;;;;;;5111566;28;20190;-72
2021/04/13 04:34:01;;;;;;;5.97;4.22;;;;;;;;;;5095301;28;20180;-73
2021/04/13 04:36:29;;;;;;;10.65;4.93;;;;;;;;;;5095367;28;20199;-74
2021/04/13 04:38:55;;;;;;;6.55;4.03;;;;;;;;;;5104478;28;20792;-72
2021/04/13 04:41:40;;;;;;;7.63;4.18;;;;;;;;;;5095263;28;20172;-75
2021/04/13 04:44:06;;;;;;;8.43;4.60;;;;;;;;;;5082302;28;20200;-74
2021/04/13 04:46:41;;;;;;;10.15;4.32;;;;;;;;;;5094847;28;20187;-74
2021/04/13 04:49:11;;;;;;;5.80;4.75;;;;;;;;;;5094017;28;20635;-74
2021/04/13 04:51:38;;;;;;;6.13;4.65;;;;;;;;;;5096766;28;20209;-73
2021/04/13 04:54:04;;;;;;;4.68;4.25;;;;;;;;;;5104485;28;20262;-73
2021/04/13 04:56:30;;;;;;;8.05;4.47;;;;;;;;;;5112613;28;20274;-73
2021/04/13 04:58:56;;;;;;;8.77;4.47;;;;;;;;;;5106913;28;20210;-73
2021/04/13 05:01:22;;;;;;;8.48;4.75;;;;;;;;;;5094976;28;20167;-74
2021/04/13 05:03:48;;;;;;;5.22;3.67;;;;;;;;;;5094758;28;20780;-74
2021/04/13 05:06:15;;;;;;;6.85;4.50;;;;;;;;;;5095640;28;20203;-74
2021/04/13 05:08:41;;;;;;;7.60;4.53;;;;;;;;;;5084159;28;20514;-74
2021/04/13 05:11:07;;;;;;;6.13;4.25;;;;;;;;;;5094538;28;20213;-73
2021/04/13 05:13:33;;;;;;;6.43;4.65;;;;;;;;;;5094726;28;20175;-74
2021/04/13 05:15:59;;;;;;;5.50;4.07;;;;;;;;;;5108531;28;20210;-74
2021/04/13 05:18:26;;;;;;;5.95;3.70;;;;;;;;;;5094590;28;20203;-73
2021/04/13 05:20:52;;;;;;;7.28;4.20;;;;;;;;;;5095042;28;20518;-74
2021/04/13 05:23:18;;;;;;;5.93;4.80;;;;;;;;;;5094572;28;20179;-73
2021/04/13 05:25:44;;;;;;;11.75;4.10;;;;;;;;;;5094527;28;20198;-73
2021/04/13 05:28:11;;;;;;;7.82;4.68;;;;;;;;;;5094531;28;20176;-74
2021/04/13 05:30:37;;;;;;;9.32;4.50;;;;;;;;;;5109602;28;20186;-74
2021/04/13 05:33:03;;;;;;;9.60;5.32;;;;;;;;;;5104039;28;20183;-74
2021/04/13 05:35:29;;;;;;;11.85;4.60;;;;;;;;;;5114417;28;20537;-73
2021/04/13 05:37:56;;;;;;;7.23;4.40;;;;;;;;;;5093827;28;20266;-74
2021/04/13 05:40:24;;;;;;;6.78;4.95;;;;;;;;;;5107913;28;20767;-73
2021/04/13 05:42:51;;;;;;;7.43;4.68;;;;;;;;;;5104401;28;20181;-73
2021/04/13 05:45:17;;;;;;;11.02;5.35;;;;;;;;;;5114751;28;20581;-73
2021/04/13 05:47:43;;;;;;;9.10;5.05;;;;;;;;;;5114798;28;20245;-74
2021/04/13 05:50:12;;;;;;;7.15;5.10;;;;;;;;;;5113824;27;20216;-73
2021/04/13 05:52:38;;;;;;;8.52;4.90;;;;;;;;;;5084878;28;20240;-74
2021/04/13 05:55:04;;;;;;;13.57;5.70;;;;;;;;;;5093551;28;20176;-74
2021/04/13 05:57:32;;;;;;;6.45;4.53;;;;;;;;;;5097450;28;20832;-74
2021/04/13 05:59:58;;;;;;;8.68;4.78;;;;;;;;;;5094134;28;20175;-74
2021/04/13 06:02:24;;;;;;;7.18;4.57;;;;;;;;;;5092460;28;20171;-74
2021/04/13 06:04:52;;;;;;;10.90;4.88;;;;;;;;;;5091714;28;20195;-74
2021/04/13 06:07:18;;;;;;;7.75;4.72;;;;;;;;;;5105053;28;20205;-74
2021/04/13 06:09:44;;;;;;;5.88;4.05;;;;;;;;;;5103343;28;20245;-74
2021/04/13 06:12:10;;;;;;;8.80;5.00;;;;;;;;;;5093541;28;20262;-72
2021/04/13 06:14:36;;;;;;;5.90;3.80;;;;;;;;;;5101045;28;20409;-73
2021/04/13 06:17:03;;;;;;;6.97;4.55;;;;;;;;;;5104165;28;20207;-73
2021/04/13 06:19:30;;;;;;;8.05;3.53;;;;;;;;;;5094889;28;20179;-73
2021/04/13 06:21:56;;;;;;;5.78;3.75;;;;;;;;;;5104729;28;20250;-74
2021/04/13 06:24:22;;;;;;;7.07;3.93;;;;;;;;;;5112509;28;20662;-74
2021/04/13 06:26:48;;;;;;;9.77;4.07;;;;;;;;;;5094094;28;20833;-74
2021/04/13 06:29:14;;;;;;;5.65;3.40;;;;;;;;;;5097758;28;20793;-73
2021/04/13 06:31:40;;;;;;;6.93;3.00;;;;;;;;;;5100084;27;20288;-73
2021/04/13 06:34:06;;;;;;;8.45;4.53;;;;;;;;;;5110228;28;20178;-72
2021/04/13 06:36:34;;;;;;;14.03;4.07;;;;;;;;;;5113517;28;20194;-74
2021/04/13 06:39:00;;;;;;;7.15;3.58;;;;;;;;;;5090692;28;20435;-74
2021/04/13 06:41:41;;;;;;;7.68;3.95;;;;;;;;;;5095544;28;20178;-73
2021/04/13 06:44:10;;;;;;;7.03;3.97;;;;;;;;;;5076467;28;20179;-74
2021/04/13 06:46:51;;;;;;;6.45;3.63;;;;;;;;;;5088885;28;20210;-73
2021/04/13 06:49:47;;;;;;;9.55;3.67;;;;;;;;;;5089142;28;20650;-74
2021/04/13 06:52:19;;;;;;;7.60;3.42;;;;;;;;;;5083131;28;20217;-72
2021/04/13 06:55:00;;;;;;;5.03;2.85;;;;;;;;;;5089177;28;20175;-73
2021/04/13 06:57:29;;;;;;;8.15;3.10;;;;;;;;;;5094482;28;20210;-73
2021/04/13 07:00:07;;;;;;;5.70;2.90;;;;;;;;;;5103659;28;20171;-73
2021/04/13 07:02:42;;;;;;;4.78;2.90;;;;;;;;;;5089097;28;20188;-73
2021/04/13 07:05:15;;;;;;;5.20;2.45;;;;;;;;;;5092297;28;20269;-73
2021/04/13 07:07:49;;;;;;;6.38;2.50;;;;;;;;;;5086617;28;20192;-74
2021/04/13 07:10:21;;;;;;;4.28;2.50;;;;;;;;;;5109621;28;20264;-74
2021/04/13 07:12:52;;;;;;;4.68;2.20;;;;;;;;;;5109259;28;20347;-73
2021/04/13 07:15:26;;;;;;;4.20;2.10;;;;;;;;;;5089496;28;20239;-72
2021/04/13 07:17:58;;;;;;;5.38;1.95;;;;;;;;;;5088910;28;20201;-73
2021/04/13 07:20:29;;;;;;;5.80;2.40;;;;;;;;;;5089064;28;20179;-73
2021/04/13 07:22:58;;;;;;;4.15;2.35;;;;;;;;;;5088603;28;20171;-75
2021/04/13 07:25:26;;;;;;;5.40;1.92;;;;;;;;;;5094720;28;20184;-74
2021/04/13 07:27:57;;;;;;;2.85;2.08;;;;;;;;;;5088823;28;20183;-74
2021/04/13 07:30:26;;;;;;;5.30;2.78;;;;;;;;;;5092577;28;20183;-74
2021/04/13 07:32:56;;;;;;;3.40;1.73;;;;;;;;;;5099832;28;20524;-74
2021/04/13 07:35:23;;;;;;;4.50;2.33;;;;;;;;;;5100551;28;20185;-75
2021/04/13 07:37:51;;;;;;;4.75;2.78;;;;;;;;;;5099225;28;20317;-75
2021/04/13 07:40:23;;;;;;;8.07;3.47;;;;;;;;;;5088827;28;20199;-74
2021/04/13 07:42:53;;;;;;;5.70;2.53;;;;;;;;;;5088285;28;20640;-75
2021/04/13 07:45:28;;;;;;;5.80;2.53;;;;;;;;;;5088615;28;20183;-75
2021/04/13 07:47:54;;;;;;;7.25;2.55;;;;;;;;;;5088505;28;20183;-75
2021/04/13 07:50:25;;;;;;;4.90;2.37;;;;;;;;;;5107813;28;20659;-75
2021/04/13 07:52:57;;;;;;;5.75;2.55;;;;;;;;;;5101398;28;20498;-75
2021/04/13 07:55:49;;;;;;;10.02;2.30;;;;;;;;;;5082572;28;20191;-74
2021/04/13 07:58:34;;;;;;;5.07;2.30;;;;;;;;;;5092460;28;20199;-75
2021/04/13 08:01:00;;;;;;;5.22;2.08;;;;;;;;;;5090940;28;20549;-74
2021/04/13 08:03:26;;;;;;;4.82;1.80;;;;;;;;;;5095501;28;20198;-74
2021/04/13 08:05:54;;;;;;;4.83;2.00;;;;;;;;;;5091980;28;20203;-74
2021/04/13 08:08:27;;;;;;;5.82;2.55;;;;;;;;;;5091732;28;20399;-74
2021/04/13 08:11:05;;;;;;;6.40;2.30;;;;;;;;;;5092570;28;20188;-74
2021/04/13 08:13:31;;;;;;;6.80;2.38;;;;;;;;;;5091536;28;20194;-74
2021/04/13 08:15:58;;;;;;;7.10;2.55;;;;;;;;;;5092107;28;20202;-75
2021/04/13 08:18:33;;;;;;;7.75;3.20;;;;;;;;;;5111961;28;20285;-74
2021/04/13 08:21:17;;;;;;;7.55;2.10;;;;;;;;;;5109730;28;20238;-74
2021/04/13 08:23:44;;;;;;;7.45;2.70;;;;;;;;;;5091760;28;20188;-74
2021/04/13 08:26:18;;;;;;;9.25;2.60;;;;;;;;;;5090282;28;20324;-74
2021/04/13 08:28:46;;;;;;;4.38;2.30;;;;;;;;;;5092113;28;20228;-74
2021/04/13 08:34:12;;;;;;;8.82;3.10;;;;;;;;;;5091526;28;20198;-75
2021/04/13 08:36:48;;;;;;;8.65;2.58;;;;;;;;;;5091652;28;20205;-75
2021/04/13 08:39:25;;;;;;;6.20;2.85;;;;;;;;;;5109846;28;20206;-76
2021/04/13 08:42:05;;;;;;;14.20;3.13;;;;;;;;;;5097558;28;20180;-75
2021/04/13 08:44:57;;;;;;;9.32;3.22;;;;;;;;;;5097029;28;20171;-75
2021/04/13 08:47:28;;;;;;;6.25;2.47;;;;;;;;;;5083862;28;20223;-75
2021/04/13 08:49:56;;;;;;;7.32;2.63;;;;;;;;;;5078641;28;20186;-74
2021/04/13 08:52:25;;;;;;;9.90;2.80;;;;;;;;;;5091383;28;20184;-75
2021/04/13 08:55:00;;;;;;;8.82;2.88;;;;;;;;;;5093049;28;20548;-76
2021/04/13 08:57:32;;;;;;;8.55;2.70;;;;;;;;;;5090954;28;20207;-75
2021/04/13 08:59:59;;;;;;;12.73;3.42;;;;;;;;;;5094942;28;20727;-75
2021/04/13 09:02:36;;;;;;;10.07;2.72;;;;;;;;;;5107655;28;20174;-75
2021/04/13 09:05:02;;;;;;;5.53;3.47;;;;;;;;;;5108115;28;20548;-74
2021/04/13 09:07:29;;;;;;;5.70;2.70;;;;;;;;;;5091227;28;20203;-75
2021/04/13 09:10:13;;;;;;;8.70;2.88;;;;;;;;;;5091076;28;20413;-74
2021/04/13 09:12:41;;;;;;;7.15;2.50;;;;;;;;;;5076112;28;20180;-73
2021/04/13 09:15:09;;;;;;;5.07;2.50;;;;;;;;;;5090741;28;20171;-72
2021/04/13 09:17:41;;;;;;;11.25;3.03;;;;;;;;;;5090348;28;20245;-72
2021/04/13 09:20:19;;;;;;;7.10;2.50;;;;;;;;;;5091004;28;20194;-74
2021/04/13 09:22:48;;;;;;;12.57;2.75;;;;;;;;;;5090505;28;20179;-73
2021/04/13 09:25:19;;;;;;;8.10;2.30;;;;;;;;;;5099472;28;20179;-76
2021/04/13 09:27:52;;;;;;;5.63;2.83;;;;;;;;;;5090344;28;20286;-75
2021/04/13 09:30:18;;;;;;;10.77;2.90;;;;;;;;;;5090636;28;20186;-74
2021/04/13 09:32:44;;;;;;;13.10;2.60;;;;;;;;;;5090401;28;20179;-74
2021/04/13 09:35:16;;;;;;;9.30;2.67;;;;;;;;;;5090483;28;20420;-74
2021/04/13 09:37:50;;;;;;;5.13;1.90;;;;;;;;;;5090129;28;20206;-74
2021/04/13 09:40:22;;;;;;;10.07;2.65;;;;;;;;;;5090405;28;20218;-74
2021/04/13 09:42:48;;;;;;;7.75;2.70;;;;;;;;;;5099655;28;20213;-74
2021/04/13 09:45:14;;;;;;;9.17;2.57;;;;;;;;;;5097005;28;20198;-74
2021/04/13 09:47:46;;;;;;;6.17;1.83;;;;;;;;;;5099914;28;20463;-77
2021/04/13 09:50:19;;;;;;;4.57;2.10;;;;;;;;;;5109541;28;20477;-74
2021/04/13 09:52:52;;;;;;;6.70;2.50;;;;;;;;;;5090214;28;20195;-74
2021/04/13 09:55:37;;;;;;;7.68;2.28;;;;;;;;;;5090058;28;20620;-74
2021/04/13 09:58:06;;;;;;;4.13;1.80;;;;;;;;;;5090027;28;20806;-75
2021/04/13 10:00:50;;;;;;;7.57;2.40;;;;;;;;;;5089883;28;20179;-75
2021/04/13 10:03:35;;;;;;;4.90;2.37;;;;;;;;;;5107850;28;20413;-76
2021/04/13 10:06:01;;;;;;;7.53;2.40;;;;;;;;;;5104257;28;20452;-75
2021/04/13 10:08:32;;;;;;;4.37;2.13;;;;;;;;;;5089726;28;20833;-76
2021/04/13 10:11:10;;;;;;;5.73;2.40;;;;;;;;;;5104325;28;20401;-75
2021/04/13 10:13:48;;;;;;;5.40;2.07;;;;;;;;;;5103768;28;20405;-74
2021/04/13 10:16:21;;;;;;;4.47;1.90;;;;;;;;;;5107684;28;20429;-75
2021/04/13 10:18:58;;;;;;;5.77;2.30;;;;;;;;;;5098174;28;20575;-74
2021/04/13 10:21:43;;;;;;;4.30;1.90;;;;;;;;;;5109876;28;20496;-75
2021/04/13 10:24:12;;;;;;;4.40;2.33;;;;;;;;;;5094754;28;20418;-73
2021/04/13 10:26:53;;;;;;;5.38;2.55;;;;;;;;;;5089470;28;20520;-74
2021/04/13 10:29:31;;;;;;;5.75;1.80;;;;;;;;;;5088193;28;20180;-75
2021/04/13 10:32:03;;;;;;;3.20;1.67;;;;;;;;;;5102888;28;20258;-75
2021/04/13 10:35:01;;;;;;;3.30;1.90;;;;;;;;;;5092525;28;20176;-76
2021/04/13 10:37:28;;;;;;;9.05;2.45;;;;;;;;;;5071177;28;20227;-75
2021/04/13 10:40:14;;;;;;;7.20;3.38;;;;;;;;;;5089355;28;20184;-75
2021/04/13 10:42:42;;;;;;;5.05;2.08;;;;;;;;;;5097282;28;20178;-75
2021/04/13 10:45:17;;;;;;;10.43;2.33;;;;;;;;;;5096969;28;20207;-75
2021/04/13 10:48:01;;;;;;;6.72;2.42;;;;;;;;;;5092852;28;20945;-75
2021/04/13 10:50:34;;;;;;;6.50;1.75;;;;;;;;;;5094381;28;20595;-74
2021/04/13 10:53:09;;;;;;;3.97;1.85;;;;;;;;;;5090963;28;20540;-74
2021/04/13 10:55:55;;;;;;;5.13;2.00;;;;;;;;;;5089213;28;20185;-76
2021/04/13 10:58:40;;;;;;;6.50;2.10;;;;;;;;;;5105929;28;20459;-75
2021/04/13 11:01:12;;;;;;;4.73;2.40;;;;;;;;;;5108111;28;20403;-74
2021/04/13 11:03:56;;;;;;;4.57;1.70;;;;;;;;;;5107152;28;20487;-76
2021/04/13 11:06:41;;;;;;;4.60;2.03;;;;;;;;;;5090502;28;20856;-74
2021/04/13 11:09:10;;;;;;;5.17;1.73;;;;;;;;;;5079260;28;20411;-74
2021/04/13 11:11:39;;;;;;;3.20;1.70;;;;;;;;;;5094319;28;20419;-73
2021/04/13 11:14:24;;;;;;;6.22;2.10;;;;;;;;;;5099469;28;21029;-74
2021/04/13 11:16:53;;;;;;;4.23;1.80;;;;;;;;;;5078164;28;20720;-74
2021/04/13 11:19:19;;;;;;;3.70;1.50;;;;;;;;;;5089206;28;20425;-74
2021/04/13 11:22:03;;;;;;;4.23;1.87;;;;;;;;;;5083475;28;20409;-75
2021/04/13 11:24:37;;;;;;;2.40;1.40;;;;;;;;;;5080113;28;20441;-75
2021/04/13 11:27:22;;;;;;;5.33;1.90;;;;;;;;;;5089110;28;20429;-75
2021/04/13 11:30:15;;;;;;;6.97;2.10;;;;;;;;;;5089079;28;20811;-74
2021/04/13 11:32:49;;;;;;;4.90;1.67;;;;;;;;;;5089376;28;20486;-75
2021/04/13 11:35:20;;;;;;;6.77;1.87;;;;;;;;;;5088038;28;20416;-76
2021/04/13 11:37:54;;;;;;;3.93;1.73;;;;;;;;;;5113216;28;20476;-74
2021/04/13 11:40:33;;;;;;;4.97;1.70;;;;;;;;;;5096096;28;20507;-74
2021/04/13 11:42:59;;;;;;;4.97;2.03;;;;;;;;;;5092355;28;20571;-72
2021/04/13 11:45:43;;;;;;;5.17;2.00;;;;;;;;;;5092787;28;20421;-74
2021/04/13 11:48:19;;;;;;;6.53;2.30;;;;;;;;;;5093529;28;20433;-74
2021/04/13 11:50:48;;;;;;;6.20;1.97;;;;;;;;;;5111595;28;20431;-75
2021/04/13 11:53:27;;;;;;;6.70;1.97;;;;;;;;;;5097684;27;20482;-76
2021/04/13 11:55:54;;;;;;;6.50;2.27;;;;;;;;;;5103621;28;20500;-75
2021/04/13 11:58:22;;;;;;;5.80;2.13;;;;;;;;;;5105970;28;20571;-74
2021/04/13 12:00:49;;;;;;;3.47;2.13;;;;;;;;;;5092334;28;20546;-75
2021/04/13 12:03:15;;;;;;;6.80;2.00;;;;;;;;;;5110960;28;20416;-74
2021/04/13 12:05:55;;;;;;;5.30;2.13;;;;;;;;;;5099892;28;20430;-74
2021/04/13 12:08:27;;;;;;;3.40;1.33;;;;;;;;;;5079117;28;20417;-73
2021/04/13 12:10:54;;;;;;;4.20;1.70;;;;;;;;;;5093014;28;20191;-74
2021/04/13 12:13:40;;;;;;;3.40;1.90;;;;;;;;;;5104183;27;20179;-74
2021/04/13 12:16:07;;;;;;;5.73;2.17;;;;;;;;;;5091896;28;20199;-73
2021/04/13 12:18:36;;;;;;;3.60;1.63;;;;;;;;;;5091980;28;20459;-74
2021/04/13 12:21:25;;;;;;;4.53;2.17;;;;;;;;;;5110096;28;20412;-74
2021/04/13 12:23:54;;;;;;;7.60;1.93;;;;;;;;;;5101353;28;20778;-75
2021/04/13 12:26:39;;;;;;;4.17;2.20;;;;;;;;;;5091533;28;20444;-75
2021/04/13 12:29:31;;;;;;;5.23;2.00;;;;;;;;;;5095114;28;21147;-75
2021/04/13 12:32:14;;;;;;;5.87;3.17;;;;;;;;;;5109141;28;20430;-74
2021/04/13 12:34:49;;;;;;;3.87;1.97;;;;;;;;;;5100476;28;21108;-72
2021/04/13 12:37:33;;;;;;;5.40;1.90;;;;;;;;;;5107381;28;20602;-74
2021/04/13 12:39:59;;;;;;;3.40;1.57;;;;;;;;;;5091364;28;20479;-73
2021/04/13 12:42:28;;;;;;;3.70;1.30;;;;;;;;;;5111587;28;20486;-73
2021/04/13 12:45:13;;;;;;;5.53;1.77;;;;;;;;;;5099869;28;20437;-74
2021/04/13 12:47:39;;;;;;;6.40;2.73;;;;;;;;;;5080216;28;20429;-73
2021/04/13 12:50:13;;;;;;;6.07;2.10;;;;;;;;;;5092339;28;20429;-73
2021/04/13 12:52:39;;;;;;;4.75;1.75;;;;;;;;;;5081472;28;20773;-74
2021/04/13 12:55:13;;;;;;;3.13;1.90;;;;;;;;;;5090964;28;20191;-73
2021/04/13 12:57:55;;;;;;;4.20;2.20;;;;;;;;;;5090997;28;20821;-73
2021/04/13 13:00:22;;;;;;;3.35;1.60;;;;;;;;;;5097262;28;20269;-76
2021/04/13 13:02:49;;;;;;;6.50;1.80;;;;;;;;;;5111383;28;20232;-74
2021/04/13 13:05:30;;;;;;;3.00;1.50;;;;;;;;;;5095427;28;20572;-75
2021/04/13 13:07:58;;;;;;;3.00;1.30;;;;;;;;;;5090875;28;20420;-74
2021/04/13 13:10:34;;;;;;;5.23;1.53;;;;;;;;;;5099832;28;20829;-76
2021/04/13 13:13:05;;;;;;;4.00;1.50;;;;;;;;;;5097316;28;20433;-74
2021/04/13 13:15:32;;;;;;;4.27;1.73;;;;;;;;;;5101867;28;20440;-75
2021/04/13 13:18:12;;;;;;;3.37;1.30;;;;;;;;;;5111046;28;20468;-74
2021/04/13 13:20:38;;;;;;;4.87;1.50;;;;;;;;;;5097958;28;20828;-74
2021/04/13 13:23:04;;;;;;;4.60;1.80;;;;;;;;;;5090497;28;20412;-74
2021/04/13 13:25:31;;;;;;;5.07;1.60;;;;;;;;;;5090421;28;20432;-74
2021/04/13 13:28:33;;;;;;;3.37;1.70;;;;;;;;;;5096480;28;20996;-74
2021/04/13 13:30:59;;;;;;;6.43;1.70;;;;;;;;;;5093634;28;20916;-75
2021/04/13 13:33:25;;;;;;;4.93;2.47;;;;;;;;;;5102882;28;20293;-74
2021/04/13 13:35:51;;;;;;;4.57;2.00;;;;;;;;;;5097342;28;20436;-74
2021/04/13 13:38:20;;;;;;;3.25;1.48;;;;;;;;;;5108216;28;20203;-74
2021/04/13 13:40:47;;;;;;;6.85;1.70;;;;;;;;;;5104496;28;20174;-74
2021/04/13 13:43:15;;;;;;;4.55;1.58;;;;;;;;;;5109336;28;20194;-74
2021/04/13 13:45:41;;;;;;;4.70;1.70;;;;;;;;;;5082580;28;20201;-74
2021/04/13 13:48:22;;;;;;;9.30;8.33;;;;;;;;;;5090163;28;20548;-73
2021/04/13 13:51:10;;;;;;;3.65;1.27;;;;;;;;;;5090394;28;20425;-74
2021/04/13 13:53:46;;;;;;;7.63;1.90;;;;;;;;;;5090281;28;20716;-73
2021/04/13 13:56:25;;;;;;;6.20;1.58;;;;;;;;;;5088397;28;20306;-74
2021/04/13 13:59:11;;;;;;;6.35;1.75;;;;;;;;;;5089768;28;20549;-74
2021/04/13 14:01:37;;;;;;;6.45;1.70;;;;;;;;;;5081277;28;20667;-74
2021/04/13 14:04:03;;;;;;;10.48;7.22;;;;;;;;;;5088990;28;20626;-74
2021/04/13 14:06:30;;;;;;;6.33;1.60;;;;;;;;;;5088995;28;20315;-75
2021/04/13 14:09:08;;;;;;;4.30;1.50;;;;;;;;;;5096526;28;20417;-73
2021/04/13 14:11:34;;;;;;;5.88;1.33;;;;;;;;;;5100201;28;20178;-72
2021/04/13 14:14:05;;;;;;;3.70;1.50;;;;;;;;;;5092853;28;20545;-74
2021/04/13 14:16:37;;;;;;;4.32;1.50;;;;;;;;;;5090626;28;20464;-74
2021/04/13 14:19:04;;;;;;;4.57;1.88;;;;;;;;;;5110027;28;20243;-73
2021/04/13 14:21:35;;;;;;;3.83;1.77;;;;;;;;;;5089878;28;20175;-74
2021/04/13 14:24:10;;;;;;;4.38;1.27;;;;;;;;;;5089446;28;20172;-74
2021/04/13 14:26:36;;;;;;;3.42;1.20;;;;;;;;;;5089911;28;20271;-74
2021/04/13 14:29:05;;;;;;;3.30;1.27;;;;;;;;;;5089557;28;20175;-75
2021/04/13 14:31:31;;;;;;;4.07;1.63;;;;;;;;;;5107794;28;20416;-75
2021/04/13 14:33:57;;;;;;;4.23;1.40;;;;;;;;;;5098845;28;20214;-73
2021/04/13 14:36:23;;;;;;;4.27;2.07;;;;;;;;;;5092351;28;20436;-73
2021/04/13 14:38:49;;;;;;;4.40;2.00;;;;;;;;;;5098917;28;20605;-73
2021/04/13 14:41:15;;;;;;;9.43;1.60;;;;;;;;;;5093940;28;20265;-74
2021/04/13 14:43:41;;;;;;;4.60;1.40;;;;;;;;;;5103827;28;20414;-74
2021/04/13 14:46:07;;;;;;;3.90;1.40;;;;;;;;;;5107432;28;20487;-73
2021/04/13 14:48:33;;;;;;;5.73;1.17;;;;;;;;;;5105527;28;20425;-72
2021/04/13 14:50:59;;;;;;;2.70;1.40;;;;;;;;;;5099124;28;20849;-73
2021/04/13 14:53:26;;;;;;;3.60;1.30;;;;;;;;;;5089133;28;20543;-75
2021/04/13 14:55:52;;;;;;;6.70;1.70;;;;;;;;;;5103196;28;20433;-74
2021/04/13 14:58:19;;;;;;;4.45;1.45;;;;;;;;;;5089079;28;20210;-75
2021/04/13 15:00:46;;;;;;;3.25;1.10;;;;;;;;;;5106532;28;20187;-74
2021/04/13 15:03:13;;;;;;;5.53;2.42;;;;;;;;;;5109712;28;20182;-73
2021/04/13 15:05:39;;;;;;;4.35;1.40;;;;;;;;;;5091480;28;20202;-74
2021/04/13 15:08:06;;;;;;;3.67;1.35;;;;;;;;;;5101918;28;20189;-74
2021/04/13 15:10:35;;;;;;;4.43;1.50;;;;;;;;;;5094794;28;20351;-73
2021/04/13 15:13:02;;;;;;;4.55;1.40;;;;;;;;;;5092747;28;20317;-73